Time;durP1;ratioP1;P1;durP2;ratioP2;P2;SDS_P1;SDS_P2;PMS_P1;PMS_P2;Temp;Humidity;BMP_temperature;BMP_pressure;BME280_temperature;BME280_humidity;BME280_pressure;Samples;Min_cycle;Max_cycle;Signal;HPM_P1;HPM_P2
2021/12/20 00:01:13;;;;;;;6.63;4.00;;;;;;;;;;5009703;28;20675;-83
2021/12/20 00:03:42;;;;;;;8.50;3.67;;;;;;;;;;5012474;28;20796;-83
2021/12/20 00:06:09;;;;;;;11.87;4.00;;;;;;;;;;5011530;28;20228;-82
2021/12/20 00:08:36;;;;;;;9.53;3.60;;;;;;;;;;5022722;28;20189;-82
2021/12/20 00:11:04;;;;;;;9.07;3.40;;;;;;;;;;5018389;28;20291;-82
2021/12/20 00:13:31;;;;;;;8.50;3.37;;;;;;;;;;5007531;28;20211;-82
2021/12/20 00:15:58;;;;;;;8.90;3.33;;;;;;;;;;5008504;28;20682;-82
2021/12/20 00:18:26;;;;;;;13.77;3.47;;;;;;;;;;5009249;28;20239;-82
2021/12/20 00:20:55;;;;;;;8.47;3.77;;;;;;;;;;5010393;28;20267;-82
2021/12/20 00:23:22;;;;;;;9.20;3.80;;;;;;;;;;5007286;28;20205;-82
2021/12/20 00:25:49;;;;;;;11.67;4.40;;;;;;;;;;5007084;28;20279;-82
2021/12/20 00:28:17;;;;;;;7.83;3.73;;;;;;;;;;5003927;28;20712;-82
2021/12/20 00:30:45;;;;;;;6.67;3.47;;;;;;;;;;5005829;28;20219;-83
2021/12/20 00:33:12;;;;;;;6.23;3.03;;;;;;;;;;5007569;28;20196;-82
2021/12/20 00:35:39;;;;;;;7.13;3.60;;;;;;;;;;5004373;28;20290;-83
2021/12/20 00:40:53;;;;;;;7.10;3.57;;;;;;;;;;5005174;28;20287;-82
2021/12/20 00:43:20;;;;;;;8.27;3.40;;;;;;;;;;5002783;28;20251;-82
2021/12/20 00:45:47;;;;;;;11.43;3.73;;;;;;;;;;5003059;28;20285;-82
2021/12/20 00:48:15;;;;;;;6.67;3.57;;;;;;;;;;5007802;28;20243;-82
2021/12/20 00:50:43;;;;;;;9.77;3.63;;;;;;;;;;5005547;28;20204;-83
2021/12/20 00:53:12;;;;;;;8.67;3.30;;;;;;;;;;5005076;28;20752;-81
2021/12/20 00:55:40;;;;;;;7.63;3.70;;;;;;;;;;5004997;28;20311;-82
2021/12/20 00:58:08;;;;;;;11.73;3.83;;;;;;;;;;5002276;28;20303;-82
2021/12/20 01:00:38;;;;;;;6.60;3.83;;;;;;;;;;5006764;28;20373;-82
2021/12/20 01:03:07;;;;;;;12.07;3.53;;;;;;;;;;5004719;28;20210;-82
2021/12/20 01:05:34;;;;;;;14.73;3.47;;;;;;;;;;5008127;28;20235;-84
2021/12/20 01:08:04;;;;;;;9.97;4.03;;;;;;;;;;5008896;28;20219;-83
2021/12/20 01:10:33;;;;;;;10.97;4.70;;;;;;;;;;5007491;28;20258;-82
2021/12/20 01:13:02;;;;;;;10.63;3.97;;;;;;;;;;5011275;28;20207;-82
2021/12/20 01:15:32;;;;;;;9.77;4.00;;;;;;;;;;5013613;28;20296;-83
2021/12/20 01:17:59;;;;;;;9.80;3.23;;;;;;;;;;5010346;28;20247;-82
2021/12/20 01:20:26;;;;;;;8.13;4.00;;;;;;;;;;5017272;28;20250;-83
2021/12/20 01:22:54;;;;;;;8.63;3.43;;;;;;;;;;5009406;28;20204;-82
2021/12/20 01:25:25;;;;;;;12.50;3.53;;;;;;;;;;5013574;28;20235;-81
2021/12/20 01:27:54;;;;;;;10.90;3.20;;;;;;;;;;5010221;28;20251;-83
2021/12/20 01:30:22;;;;;;;9.57;3.50;;;;;;;;;;5012996;28;20290;-83
2021/12/20 01:32:50;;;;;;;13.67;3.77;;;;;;;;;;5013170;28;20233;-83
2021/12/20 01:35:18;;;;;;;8.57;3.03;;;;;;;;;;5010925;28;20205;-83
2021/12/20 01:37:45;;;;;;;16.73;3.27;;;;;;;;;;5012727;28;20227;-81
2021/12/20 01:40:15;;;;;;;9.87;3.13;;;;;;;;;;5012890;28;20216;-83
2021/12/20 01:42:42;;;;;;;11.73;3.23;;;;;;;;;;5010555;28;20205;-83
2021/12/20 01:45:14;;;;;;;7.67;3.33;;;;;;;;;;5013147;28;20209;-83
2021/12/20 01:47:44;;;;;;;9.10;3.27;;;;;;;;;;5012836;28;20916;-84
2021/12/20 01:50:17;;;;;;;10.90;3.27;;;;;;;;;;5008805;28;20196;-83
2021/12/20 01:52:44;;;;;;;11.37;3.07;;;;;;;;;;5012204;28;20209;-83
2021/12/20 01:55:13;;;;;;;10.43;2.70;;;;;;;;;;5011651;28;20295;-83
2021/12/20 01:57:40;;;;;;;10.37;3.00;;;;;;;;;;5010147;28;20722;-82
2021/12/20 02:00:09;;;;;;;12.47;2.67;;;;;;;;;;5011136;28;20315;-84
2021/12/20 02:02:38;;;;;;;11.63;2.63;;;;;;;;;;5009974;28;20268;-83
2021/12/20 02:05:15;;;;;;;10.80;3.07;;;;;;;;;;5006362;28;20205;-81
2021/12/20 02:07:51;;;;;;;10.27;2.30;;;;;;;;;;5009205;28;20298;-82
2021/12/20 02:10:18;;;;;;;12.63;3.03;;;;;;;;;;5008870;28;20204;-83
2021/12/20 02:12:45;;;;;;;14.53;3.33;;;;;;;;;;5006255;28;20209;-82
2021/12/20 02:15:13;;;;;;;16.13;2.93;;;;;;;;;;5010009;28;20276;-83
2021/12/20 02:17:42;;;;;;;15.93;3.53;;;;;;;;;;5006478;28;20287;-82
2021/12/20 02:20:23;;;;;;;14.97;3.10;;;;;;;;;;5009063;28;20246;-82
2021/12/20 02:22:51;;;;;;;9.03;2.23;;;;;;;;;;5008464;28;20255;-84
2021/12/20 02:25:18;;;;;;;11.30;2.57;;;;;;;;;;5008822;28;20316;-82
2021/12/20 02:27:46;;;;;;;12.50;2.60;;;;;;;;;;5007861;28;20727;-81
2021/12/20 02:30:37;;;;;;;12.33;2.93;;;;;;;;;;5008564;28;20302;-81
2021/12/20 02:38:35;;;;;;;11.70;2.63;;;;;;;;;;5009387;28;20210;-81
2021/12/20 02:41:06;;;;;;;12.03;3.20;;;;;;;;;;5008538;28;20800;-82
2021/12/20 02:43:36;;;;;;;9.80;2.80;;;;;;;;;;5010665;28;20209;-82
2021/12/20 02:46:07;;;;;;;7.47;3.00;;;;;;;;;;5008534;28;20275;-82
2021/12/20 02:48:34;;;;;;;12.93;3.20;;;;;;;;;;5011138;28;20204;-82
2021/12/20 02:51:02;;;;;;;6.53;3.00;;;;;;;;;;4992998;23;20874;-79
2021/12/20 02:53:30;;;;;;;10.93;3.10;;;;;;;;;;4969440;28;20281;-79
2021/12/20 02:55:57;;;;;;;15.03;3.40;;;;;;;;;;4960552;28;20265;-80
2021/12/20 02:58:24;;;;;;;17.73;4.17;;;;;;;;;;4956912;28;20292;-79
2021/12/20 03:00:51;;;;;;;14.10;4.50;;;;;;;;;;4954037;28;20752;-79
2021/12/20 03:03:19;;;;;;;19.80;5.50;;;;;;;;;;4959058;28;20283;-79
2021/12/20 03:05:46;;;;;;;10.67;3.37;;;;;;;;;;4953631;28;20655;-79
2021/12/20 03:08:14;;;;;;;8.00;4.03;;;;;;;;;;4954291;28;20234;-79
2021/12/20 03:10:42;;;;;;;12.87;3.50;;;;;;;;;;4954404;28;20891;-79
2021/12/20 03:13:10;;;;;;;16.17;2.93;;;;;;;;;;4955179;28;20296;-79
2021/12/20 03:15:38;;;;;;;12.40;3.37;;;;;;;;;;4951922;28;20257;-79
2021/12/20 03:18:05;;;;;;;18.33;3.90;;;;;;;;;;4957979;28;20252;-79
2021/12/20 03:20:32;;;;;;;19.13;4.20;;;;;;;;;;4951637;28;20281;-79
2021/12/20 03:23:00;;;;;;;9.97;3.50;;;;;;;;;;4952705;28;20410;-79
2021/12/20 03:25:28;;;;;;;11.47;3.73;;;;;;;;;;4953938;28;20577;-79
2021/12/20 03:27:56;;;;;;;12.73;3.97;;;;;;;;;;4952468;28;20233;-80
2021/12/20 03:30:25;;;;;;;14.50;3.13;;;;;;;;;;4952448;28;20198;-79
2021/12/20 03:32:52;;;;;;;16.70;3.80;;;;;;;;;;4959222;28;20213;-79
2021/12/20 03:35:19;;;;;;;8.57;3.23;;;;;;;;;;4956779;28;20939;-79
2021/12/20 03:37:47;;;;;;;11.67;3.57;;;;;;;;;;4959608;28;20842;-79
2021/12/20 03:40:14;;;;;;;14.30;3.27;;;;;;;;;;4969632;28;20446;-79
2021/12/20 03:42:44;;;;;;;27.33;3.57;;;;;;;;;;4965348;28;20568;-79
2021/12/20 03:45:13;;;;;;;9.53;3.33;;;;;;;;;;4957422;28;20533;-79
2021/12/20 03:47:41;;;;;;;17.90;3.93;;;;;;;;;;4954438;28;20628;-79
2021/12/20 03:50:08;;;;;;;9.83;4.03;;;;;;;;;;4958099;28;20309;-79
2021/12/20 03:52:38;;;;;;;14.90;5.27;;;;;;;;;;4953246;28;20502;-79
2021/12/20 03:55:06;;;;;;;21.20;5.53;;;;;;;;;;4960486;28;20230;-79
2021/12/20 03:57:33;;;;;;;17.20;4.77;;;;;;;;;;4953929;28;20584;-79
2021/12/20 04:00:02;;;;;;;21.27;4.30;;;;;;;;;;4956224;28;20312;-79
2021/12/20 04:02:36;;;;;;;13.87;3.17;;;;;;;;;;4954353;28;20477;-79
2021/12/20 04:05:03;;;;;;;9.13;3.60;;;;;;;;;;4952896;28;20484;-79
2021/12/20 04:07:31;;;;;;;11.93;3.00;;;;;;;;;;4955905;28;20296;-80
2021/12/20 04:09:58;;;;;;;14.90;3.40;;;;;;;;;;4955441;28;20482;-79
2021/12/20 04:12:25;;;;;;;13.03;4.07;;;;;;;;;;4956805;28;20217;-80
2021/12/20 04:14:53;;;;;;;11.03;4.63;;;;;;;;;;4955225;28;20509;-79
2021/12/20 04:17:21;;;;;;;17.10;5.43;;;;;;;;;;4956219;28;20554;-79
2021/12/20 04:19:48;;;;;;;17.20;6.03;;;;;;;;;;4952487;28;20206;-79
2021/12/20 04:22:18;;;;;;;20.50;4.63;;;;;;;;;;4953898;28;20249;-79
2021/12/20 04:24:45;;;;;;;20.83;4.63;;;;;;;;;;4956836;28;20237;-79
2021/12/20 04:27:13;;;;;;;11.53;3.73;;;;;;;;;;4959654;28;20499;-79
2021/12/20 04:29:40;;;;;;;24.23;3.90;;;;;;;;;;4955937;28;20497;-79
2021/12/20 04:32:07;;;;;;;13.20;4.37;;;;;;;;;;4956189;28;20493;-79
2021/12/20 04:34:36;;;;;;;18.47;3.70;;;;;;;;;;4952486;28;20460;-78
2021/12/20 04:37:06;;;;;;;20.57;4.40;;;;;;;;;;4951206;28;20245;-79
2021/12/20 04:39:33;;;;;;;14.00;4.73;;;;;;;;;;4951479;28;20485;-79
2021/12/20 04:42:01;;;;;;;18.57;4.63;;;;;;;;;;4952820;28;20580;-79
2021/12/20 04:44:28;;;;;;;15.63;4.60;;;;;;;;;;4950712;28;20457;-79
2021/12/20 04:46:56;;;;;;;16.97;4.60;;;;;;;;;;4949730;28;20206;-79
2021/12/20 04:49:24;;;;;;;15.27;4.57;;;;;;;;;;4950011;28;20318;-79
2021/12/20 04:51:53;;;;;;;15.50;4.27;;;;;;;;;;4951096;28;20465;-79
2021/12/20 04:54:20;;;;;;;12.83;4.23;;;;;;;;;;4951952;28;20489;-79
2021/12/20 04:56:49;;;;;;;13.63;4.10;;;;;;;;;;4958014;28;20521;-80
2021/12/20 04:59:16;;;;;;;17.53;4.10;;;;;;;;;;4954629;28;20549;-79
2021/12/20 05:01:43;;;;;;;18.40;4.67;;;;;;;;;;4948894;28;20529;-79
2021/12/20 05:04:10;;;;;;;13.60;4.30;;;;;;;;;;4951946;28;21057;-79
2021/12/20 05:06:38;;;;;;;24.33;4.27;;;;;;;;;;4954236;28;20474;-79
2021/12/20 05:09:06;;;;;;;19.83;5.43;;;;;;;;;;4955495;28;20501;-79
2021/12/20 05:11:35;;;;;;;20.20;5.00;;;;;;;;;;4951921;28;20476;-80
2021/12/20 05:14:02;;;;;;;13.07;4.50;;;;;;;;;;4951427;28;20461;-79
2021/12/20 05:16:29;;;;;;;14.20;3.90;;;;;;;;;;4955396;28;20501;-80
2021/12/20 05:18:56;;;;;;;10.93;3.80;;;;;;;;;;4954983;28;20548;-80
2021/12/20 05:21:24;;;;;;;9.40;3.57;;;;;;;;;;4955651;28;20928;-80
2021/12/20 05:23:52;;;;;;;11.20;3.80;;;;;;;;;;4962234;28;20469;-81
2021/12/20 05:26:20;;;;;;;17.20;3.97;;;;;;;;;;4953095;28;20473;-80
2021/12/20 05:28:49;;;;;;;12.77;4.43;;;;;;;;;;4956976;28;20497;-82
2021/12/20 05:31:16;;;;;;;12.83;3.87;;;;;;;;;;4955563;28;20468;-80
2021/12/20 05:33:43;;;;;;;17.90;3.93;;;;;;;;;;4959295;28;20505;-80
2021/12/20 05:36:11;;;;;;;23.57;4.10;;;;;;;;;;4961937;28;20548;-79
2021/12/20 05:38:38;;;;;;;19.47;3.87;;;;;;;;;;4961604;28;20574;-80
2021/12/20 05:41:05;;;;;;;17.03;3.63;;;;;;;;;;4958130;28;20485;-81
2021/12/20 05:43:34;;;;;;;18.77;4.07;;;;;;;;;;4963831;28;20462;-81
2021/12/20 05:46:01;;;;;;;17.33;4.57;;;;;;;;;;4961169;28;20581;-80
2021/12/20 05:48:30;;;;;;;13.30;3.87;;;;;;;;;;4965540;28;21002;-80
2021/12/20 05:50:58;;;;;;;15.23;4.07;;;;;;;;;;4970742;28;20469;-80
2021/12/20 05:53:25;;;;;;;15.10;4.23;;;;;;;;;;4964785;28;20917;-80
2021/12/20 05:55:52;;;;;;;17.17;3.80;;;;;;;;;;4961671;28;20473;-79
2021/12/20 05:58:19;;;;;;;14.47;4.37;;;;;;;;;;4966508;28;20563;-80
2021/12/20 06:00:48;;;;;;;10.17;3.50;;;;;;;;;;4975938;28;20472;-81
2021/12/20 06:03:15;;;;;;;8.13;3.47;;;;;;;;;;4975105;28;20484;-80
2021/12/20 06:05:43;;;;;;;13.57;3.77;;;;;;;;;;4967584;28;20535;-80
2021/12/20 06:08:10;;;;;;;14.23;4.40;;;;;;;;;;4965389;28;20466;-80
2021/12/20 06:10:39;;;;;;;19.97;4.23;;;;;;;;;;4969478;28;20867;-80
2021/12/20 06:13:07;;;;;;;18.63;4.10;;;;;;;;;;4976742;28;20468;-81
2021/12/20 06:15:34;;;;;;;16.07;4.07;;;;;;;;;;4973636;28;20486;-81
2021/12/20 06:18:03;;;;;;;21.37;3.77;;;;;;;;;;4974130;28;20458;-80
2021/12/20 06:20:30;;;;;;;10.80;4.13;;;;;;;;;;4967456;28;20461;-80
2021/12/20 06:22:58;;;;;;;18.43;4.73;;;;;;;;;;4967585;28;20554;-81
2021/12/20 06:25:26;;;;;;;12.37;4.43;;;;;;;;;;4969102;28;20576;-82
2021/12/20 06:27:53;;;;;;;15.37;4.50;;;;;;;;;;4960320;28;20523;-82
2021/12/20 06:30:21;;;;;;;22.60;4.70;;;;;;;;;;4964691;28;20465;-82
2021/12/20 06:32:48;;;;;;;14.33;4.10;;;;;;;;;;4965863;28;20458;-82
2021/12/20 06:35:17;;;;;;;17.37;4.63;;;;;;;;;;4966101;28;20521;-82
2021/12/20 06:37:47;;;;;;;21.37;4.50;;;;;;;;;;4969589;28;20470;-82
2021/12/20 06:40:15;;;;;;;22.90;4.60;;;;;;;;;;4970646;28;20948;-82
2021/12/20 06:42:42;;;;;;;17.93;4.13;;;;;;;;;;4965242;28;20581;-82
2021/12/20 06:45:10;;;;;;;11.73;3.57;;;;;;;;;;4970037;28;20560;-82
2021/12/20 06:47:37;;;;;;;16.80;3.70;;;;;;;;;;4965975;28;21020;-82
2021/12/20 06:50:05;;;;;;;17.07;4.53;;;;;;;;;;4969839;28;20564;-82
2021/12/20 06:52:33;;;;;;;28.67;4.73;;;;;;;;;;4964753;28;20493;-81
2021/12/20 06:55:01;;;;;;;21.63;4.40;;;;;;;;;;4964938;28;20477;-82
2021/12/20 06:57:28;;;;;;;16.57;4.97;;;;;;;;;;4967511;28;20499;-82
2021/12/20 06:59:56;;;;;;;11.13;4.40;;;;;;;;;;4973137;28;20521;-82
2021/12/20 07:02:24;;;;;;;15.60;4.33;;;;;;;;;;4969909;28;20894;-82
2021/12/20 07:04:51;;;;;;;17.03;5.13;;;;;;;;;;4967571;28;20500;-82
2021/12/20 07:07:18;;;;;;;19.73;4.50;;;;;;;;;;4962868;28;20567;-81
2021/12/20 07:09:47;;;;;;;14.90;4.13;;;;;;;;;;4972450;28;20982;-81
2021/12/20 07:12:14;;;;;;;23.83;4.37;;;;;;;;;;4973025;28;20517;-81
2021/12/20 07:14:42;;;;;;;26.90;4.50;;;;;;;;;;4969151;28;20530;-82
2021/12/20 07:17:09;;;;;;;15.30;4.70;;;;;;;;;;4970204;28;20453;-82
2021/12/20 07:19:37;;;;;;;21.03;4.83;;;;;;;;;;4966277;28;20936;-82
2021/12/20 07:22:04;;;;;;;25.50;4.97;;;;;;;;;;4967281;28;20980;-82
2021/12/20 07:24:31;;;;;;;21.67;4.10;;;;;;;;;;4967472;28;20465;-81
2021/12/20 07:27:00;;;;;;;14.40;5.17;;;;;;;;;;4964463;28;20469;-81
2021/12/20 07:29:27;;;;;;;23.50;5.47;;;;;;;;;;4977271;28;20533;-81
2021/12/20 07:31:54;;;;;;;18.77;5.17;;;;;;;;;;4971394;28;20868;-82
2021/12/20 07:34:22;;;;;;;22.00;5.03;;;;;;;;;;4972557;28;20478;-81
2021/12/20 07:36:50;;;;;;;17.93;5.60;;;;;;;;;;4972000;28;20461;-81
2021/12/20 07:39:18;;;;;;;16.10;5.17;;;;;;;;;;4976491;28;20557;-81
2021/12/20 07:41:45;;;;;;;10.57;3.97;;;;;;;;;;4965690;28;20529;-80
2021/12/20 07:44:14;;;;;;;18.87;5.97;;;;;;;;;;4966824;28;20437;-81
2021/12/20 07:46:41;;;;;;;16.83;5.23;;;;;;;;;;4970724;28;20480;-81
2021/12/20 07:49:08;;;;;;;28.60;5.37;;;;;;;;;;4974244;28;20524;-82
2021/12/20 07:51:35;;;;;;;21.03;5.80;;;;;;;;;;4970671;28;20469;-81
2021/12/20 07:54:02;;;;;;;29.33;5.40;;;;;;;;;;4971440;28;20842;-82
2021/12/20 07:56:30;;;;;;;18.07;4.80;;;;;;;;;;4972346;28;20481;-81
2021/12/20 07:58:57;;;;;;;20.93;5.40;;;;;;;;;;4967807;28;20466;-81
2021/12/20 08:01:26;;;;;;;21.30;5.53;;;;;;;;;;4968455;28;20437;-81
2021/12/20 08:03:54;;;;;;;27.63;5.83;;;;;;;;;;4960696;28;20492;-81
2021/12/20 08:06:21;;;;;;;19.77;5.40;;;;;;;;;;4966162;28;20477;-82
2021/12/20 08:08:48;;;;;;;23.17;5.40;;;;;;;;;;4968822;28;20539;-81
2021/12/20 08:11:15;;;;;;;26.17;5.40;;;;;;;;;;4965682;28;20533;-81
2021/12/20 08:13:45;;;;;;;24.27;5.57;;;;;;;;;;4965976;28;20482;-80
2021/12/20 08:16:12;;;;;;;19.83;5.13;;;;;;;;;;4965760;28;20476;-80
2021/12/20 08:18:41;;;;;;;16.60;5.03;;;;;;;;;;4965604;28;20469;-81
2021/12/20 08:21:09;;;;;;;18.07;4.50;;;;;;;;;;4962455;28;20916;-80
2021/12/20 08:23:36;;;;;;;29.13;6.90;;;;;;;;;;4971057;28;20513;-80
2021/12/20 08:26:04;;;;;;;19.27;5.13;;;;;;;;;;4966736;28;21078;-80
2021/12/20 08:28:32;;;;;;;18.07;5.80;;;;;;;;;;4964948;28;20908;-81
2021/12/20 08:30:59;;;;;;;21.63;5.33;;;;;;;;;;4963709;28;20458;-81
2021/12/20 08:33:26;;;;;;;31.60;5.77;;;;;;;;;;4966103;28;20540;-81
2021/12/20 08:35:55;;;;;;;19.90;5.50;;;;;;;;;;4971723;28;20536;-81
2021/12/20 08:38:22;;;;;;;20.57;5.73;;;;;;;;;;4966046;28;20521;-81
2021/12/20 08:40:49;;;;;;;17.20;6.97;;;;;;;;;;4965767;28;20534;-81
2021/12/20 08:43:17;;;;;;;29.53;8.27;;;;;;;;;;4968921;28;20539;-81
2021/12/20 08:45:45;;;;;;;25.33;7.70;;;;;;;;;;4965667;28;20572;-81
2021/12/20 08:48:12;;;;;;;20.23;7.53;;;;;;;;;;4968114;28;20556;-81
2021/12/20 08:50:39;;;;;;;25.63;8.17;;;;;;;;;;4985865;23;20599;-81
2021/12/20 08:53:10;;;;;;;23.60;8.00;;;;;;;;;;4984846;28;20456;-82
2021/12/20 08:55:38;;;;;;;30.37;9.33;;;;;;;;;;4986704;28;20751;-81
2021/12/20 08:58:05;;;;;;;25.30;8.80;;;;;;;;;;4981188;28;23369;-78
2021/12/20 09:00:34;;;;;;;23.30;8.10;;;;;;;;;;4986712;28;20490;-80
2021/12/20 09:03:01;;;;;;;23.57;6.77;;;;;;;;;;4981537;28;20535;-81
2021/12/20 09:05:29;;;;;;;29.30;8.03;;;;;;;;;;4987107;28;20570;-81
2021/12/20 09:08:00;;;;;;;23.30;8.10;;;;;;;;;;4981294;28;20888;-82
2021/12/20 09:10:29;;;;;;;29.17;10.03;;;;;;;;;;4986709;28;20565;-82
2021/12/20 09:12:56;;;;;;;28.87;10.47;;;;;;;;;;4982980;28;20479;-81
2021/12/20 09:15:24;;;;;;;35.37;9.67;;;;;;;;;;4982997;28;20476;-81
2021/12/20 09:17:52;;;;;;;32.70;9.57;;;;;;;;;;4985521;28;20523;-81
2021/12/20 09:20:21;;;;;;;30.30;9.70;;;;;;;;;;4983745;28;20456;-81
2021/12/20 09:22:52;;;;;;;22.93;7.30;;;;;;;;;;4987043;28;20487;-78
2021/12/20 09:25:20;;;;;;;26.93;9.90;;;;;;;;;;4984183;28;20920;-80
2021/12/20 09:27:49;;;;;;;26.53;8.60;;;;;;;;;;4982810;28;20962;-79
2021/12/20 09:30:16;;;;;;;27.87;8.57;;;;;;;;;;4980773;28;20496;-79
2021/12/20 09:32:43;;;;;;;28.20;9.90;;;;;;;;;;4985632;28;20464;-80
2021/12/20 09:35:11;;;;;;;25.07;8.40;;;;;;;;;;4984577;28;20469;-80
2021/12/20 09:37:38;;;;;;;29.27;9.60;;;;;;;;;;4982330;28;20452;-80
2021/12/20 09:40:06;;;;;;;32.70;10.23;;;;;;;;;;4983735;28;20473;-80
2021/12/20 09:42:34;;;;;;;21.23;9.03;;;;;;;;;;4980822;28;20566;-80
2021/12/20 09:45:04;;;;;;;23.57;9.90;;;;;;;;;;4988156;28;20469;-81
2021/12/20 09:47:33;;;;;;;26.13;8.57;;;;;;;;;;4983902;28;20518;-81
2021/12/20 09:50:02;;;;;;;26.73;7.53;;;;;;;;;;4989489;28;20985;-81
2021/12/20 09:52:29;;;;;;;19.27;6.63;;;;;;;;;;4987159;28;20463;-79
2021/12/20 09:54:57;;;;;;;22.07;6.70;;;;;;;;;;4991011;28;20491;-81
2021/12/20 09:57:25;;;;;;;22.40;7.43;;;;;;;;;;4985677;28;20545;-80
2021/12/20 09:59:52;;;;;;;22.33;6.23;;;;;;;;;;4989736;28;20505;-80
2021/12/20 10:02:23;;;;;;;30.17;6.50;;;;;;;;;;4983236;28;20992;-79
2021/12/20 10:04:50;;;;;;;19.43;6.10;;;;;;;;;;4987113;28;20508;-81
2021/12/20 10:07:23;;;;;;;23.90;5.40;;;;;;;;;;4988666;28;20623;-80
2021/12/20 10:09:50;;;;;;;18.67;4.97;;;;;;;;;;4985498;28;20515;-80
2021/12/20 10:12:21;;;;;;;22.50;5.83;;;;;;;;;;4985244;28;20943;-81
2021/12/20 10:14:56;;;;;;;26.93;5.53;;;;;;;;;;4983794;28;20492;-81
2021/12/20 10:17:26;;;;;;;20.47;5.50;;;;;;;;;;4987662;28;20470;-81
2021/12/20 10:19:53;;;;;;;16.43;5.43;;;;;;;;;;4990456;28;20509;-81
2021/12/20 10:22:25;;;;;;;24.50;5.93;;;;;;;;;;4988758;28;20486;-82
2021/12/20 10:24:52;;;;;;;21.17;6.00;;;;;;;;;;4991410;28;20986;-81
2021/12/20 10:27:29;;;;;;;19.80;5.70;;;;;;;;;;4988785;28;21112;-82
2021/12/20 10:29:57;;;;;;;25.23;6.27;;;;;;;;;;4989728;28;20496;-81
2021/12/20 10:32:45;;;;;;;19.17;5.90;;;;;;;;;;4986576;28;20472;-81
2021/12/20 10:35:27;;;;;;;22.87;6.07;;;;;;;;;;4978422;28;20280;-81
2021/12/20 10:37:56;;;;;;;19.33;5.13;;;;;;;;;;4986008;28;20539;-81
2021/12/20 10:40:23;;;;;;;13.93;5.00;;;;;;;;;;4981953;28;20217;-83
2021/12/20 10:42:52;;;;;;;23.77;5.20;;;;;;;;;;4986314;28;20257;-82
2021/12/20 10:45:20;;;;;;;16.87;5.27;;;;;;;;;;4985239;28;20719;-81
2021/12/20 10:47:48;;;;;;;19.23;5.40;;;;;;;;;;4986760;28;20460;-82
2021/12/20 10:50:23;;;;;;;18.20;4.97;;;;;;;;;;4987257;28;20595;-82
2021/12/20 10:52:50;;;;;;;18.43;4.90;;;;;;;;;;4985145;28;20483;-82
2021/12/20 10:55:32;;;;;;;23.87;4.37;;;;;;;;;;4984880;28;20699;-83
2021/12/20 10:58:16;;;;;;;21.93;4.27;;;;;;;;;;4987705;28;20239;-82
2021/12/20 11:00:44;;;;;;;21.67;4.23;;;;;;;;;;4986671;28;20221;-81
2021/12/20 11:03:24;;;;;;;16.23;3.57;;;;;;;;;;4987371;28;20626;-81
2021/12/20 11:11:32;;;;;;;13.77;3.77;;;;;;;;;;4984812;28;20212;-82
2021/12/20 11:14:00;;;;;;;15.93;3.67;;;;;;;;;;4982489;28;20586;-82
2021/12/20 11:16:29;;;;;;;18.10;3.57;;;;;;;;;;4986225;28;20244;-83
2021/12/20 11:19:12;;;;;;;22.87;4.00;;;;;;;;;;4979127;28;20221;-82
2021/12/20 11:21:46;;;;;;;14.60;3.27;;;;;;;;;;4985831;28;20259;-81
2021/12/20 11:24:13;;;;;;;20.27;3.50;;;;;;;;;;4985494;28;20322;-82
2021/12/20 11:26:41;;;;;;;23.17;3.43;;;;;;;;;;4984076;28;20236;-81
2021/12/20 11:29:10;;;;;;;24.17;3.13;;;;;;;;;;4984424;28;20746;-81
2021/12/20 11:31:38;;;;;;;16.93;3.03;;;;;;;;;;4989093;28;20212;-83
2021/12/20 11:34:05;;;;;;;10.40;2.37;;;;;;;;;;4996906;28;20228;-83
2021/12/20 11:36:33;;;;;;;13.27;2.47;;;;;;;;;;4996427;28;20789;-82
2021/12/20 11:39:00;;;;;;;15.00;2.50;;;;;;;;;;4986391;28;20680;-81
2021/12/20 11:41:27;;;;;;;16.57;3.07;;;;;;;;;;4993766;28;20256;-82
2021/12/20 11:43:55;;;;;;;17.13;3.43;;;;;;;;;;4988050;28;20244;-82
2021/12/20 11:46:25;;;;;;;16.20;3.27;;;;;;;;;;4985772;28;20257;-82
2021/12/20 11:48:52;;;;;;;14.93;2.80;;;;;;;;;;4983327;28;20205;-82
2021/12/20 11:51:20;;;;;;;10.73;3.03;;;;;;;;;;4982218;28;20213;-83
2021/12/20 11:53:47;;;;;;;15.67;2.80;;;;;;;;;;4989589;28;20557;-81
2021/12/20 11:56:14;;;;;;;17.70;3.43;;;;;;;;;;4988477;28;20590;-81
2021/12/20 11:58:46;;;;;;;17.00;3.40;;;;;;;;;;4986062;28;20280;-82
2021/12/20 12:01:15;;;;;;;9.60;3.00;;;;;;;;;;4986538;28;20232;-81
2021/12/20 12:03:52;;;;;;;18.63;5.50;;;;;;;;;;4985192;28;20233;-83
2021/12/20 12:06:24;;;;;;;15.23;4.43;;;;;;;;;;4985797;28;20265;-81
2021/12/20 12:08:58;;;;;;;12.10;3.13;;;;;;;;;;4984267;28;20209;-82
2021/12/20 12:11:30;;;;;;;52.80;26.00;;;;;;;;;;4983349;28;20617;-82
2021/12/20 12:14:23;;;;;;;9.37;2.83;;;;;;;;;;4983798;28;20224;-82
2021/12/20 12:17:01;;;;;;;50.03;28.60;;;;;;;;;;4988763;28;20210;-82
2021/12/20 12:19:53;;;;;;;12.10;4.33;;;;;;;;;;4985944;28;20205;-82
2021/12/20 12:22:41;;;;;;;28.73;15.50;;;;;;;;;;4977488;28;20209;-81
2021/12/20 12:25:10;;;;;;;7.87;2.20;;;;;;;;;;4987068;28;20292;-81
2021/12/20 12:27:40;;;;;;;8.70;2.40;;;;;;;;;;4986607;28;20666;-82
2021/12/20 12:30:27;;;;;;;31.33;13.80;;;;;;;;;;4985000;28;20272;-80
2021/12/20 12:33:13;;;;;;;24.90;10.40;;;;;;;;;;4987447;28;20233;-82
2021/12/20 12:35:51;;;;;;;9.37;2.50;;;;;;;;;;4988373;28;20257;-82
2021/12/20 12:38:21;;;;;;;5.83;1.90;;;;;;;;;;4995717;28;20726;-80
2021/12/20 12:40:51;;;;;;;6.63;2.00;;;;;;;;;;4985154;28;20222;-82
2021/12/20 12:43:18;;;;;;;9.20;2.77;;;;;;;;;;4985568;28;20236;-81
2021/12/20 12:45:50;;;;;;;4.93;2.37;;;;;;;;;;4982138;28;20750;-82
2021/12/20 12:48:39;;;;;;;10.07;2.00;;;;;;;;;;4978961;28;20296;-81
2021/12/20 12:51:08;;;;;;;7.67;2.43;;;;;;;;;;4982143;28;20574;-80
2021/12/20 12:53:40;;;;;;;10.77;1.80;;;;;;;;;;4982502;28;20205;-82
2021/12/20 12:56:26;;;;;;;4.53;1.60;;;;;;;;;;4987375;28;20227;-83
2021/12/20 12:59:08;;;;;;;12.37;4.20;;;;;;;;;;4984211;28;20287;-82
2021/12/20 13:01:39;;;;;;;9.83;1.43;;;;;;;;;;4980213;28;20241;-83
2021/12/20 13:04:06;;;;;;;3.87;0.90;;;;;;;;;;4982405;28;20334;-82
2021/12/20 13:06:33;;;;;;;3.43;1.20;;;;;;;;;;4981065;28;20744;-82
2021/12/20 13:09:02;;;;;;;18.13;6.33;;;;;;;;;;4983233;28;20297;-82
2021/12/20 13:11:31;;;;;;;9.90;3.70;;;;;;;;;;4985523;28;20244;-83
2021/12/20 13:14:10;;;;;;;24.23;9.87;;;;;;;;;;4984879;28;20209;-82
2021/12/20 13:16:43;;;;;;;15.40;6.57;;;;;;;;;;4981272;28;20530;-82
2021/12/20 13:19:13;;;;;;;9.03;3.90;;;;;;;;;;4983816;28;20703;-81
2021/12/20 13:21:54;;;;;;;7.10;2.87;;;;;;;;;;4984608;28;20264;-81
2021/12/20 13:24:23;;;;;;;5.83;2.37;;;;;;;;;;4981248;28;20228;-83
2021/12/20 13:26:50;;;;;;;5.17;1.57;;;;;;;;;;4983290;28;20237;-81
2021/12/20 13:29:18;;;;;;;4.03;1.00;;;;;;;;;;4982710;28;20271;-81
2021/12/20 13:31:45;;;;;;;2.37;1.00;;;;;;;;;;4986424;28;20639;-81
2021/12/20 13:34:14;;;;;;;4.30;1.27;;;;;;;;;;4979869;28;20209;-81
2021/12/20 13:36:50;;;;;;;3.83;1.00;;;;;;;;;;4979117;28;20722;-82
2021/12/20 13:39:18;;;;;;;7.47;1.27;;;;;;;;;;4976405;28;20406;-82
2021/12/20 13:41:46;;;;;;;4.40;1.33;;;;;;;;;;4982207;28;20205;-81
2021/12/20 13:44:19;;;;;;;5.70;1.50;;;;;;;;;;4981070;28;20260;-82
2021/12/20 13:46:49;;;;;;;2.03;0.73;;;;;;;;;;4977974;28;20276;-81
2021/12/20 13:49:17;;;;;;;3.90;1.73;;;;;;;;;;4983804;28;20205;-82
2021/12/20 13:51:45;;;;;;;6.13;1.60;;;;;;;;;;4980928;28;20222;-81
2021/12/20 13:54:24;;;;;;;4.57;1.50;;;;;;;;;;4977149;28;21056;-83
2021/12/20 13:56:53;;;;;;;4.57;1.50;;;;;;;;;;4978712;28;20672;-82
2021/12/20 13:59:25;;;;;;;4.80;1.40;;;;;;;;;;4979271;28;20210;-82
2021/12/20 14:01:52;;;;;;;5.30;1.83;;;;;;;;;;4977009;28;20260;-82
2021/12/20 14:04:30;;;;;;;5.07;2.03;;;;;;;;;;4981572;28;20263;-82
2021/12/20 14:06:59;;;;;;;4.70;1.53;;;;;;;;;;4975454;28;20236;-82
2021/12/20 14:09:35;;;;;;;7.10;1.40;;;;;;;;;;4980542;28;20817;-81
2021/12/20 14:12:19;;;;;;;3.23;1.40;;;;;;;;;;4977498;28;20375;-81
2021/12/20 14:15:06;;;;;;;4.40;1.20;;;;;;;;;;4980558;28;20224;-81
2021/12/20 14:17:48;;;;;;;7.03;1.70;;;;;;;;;;4996666;28;20224;-82
2021/12/20 14:20:15;;;;;;;7.47;1.70;;;;;;;;;;4989203;28;20300;-82
2021/12/20 14:22:55;;;;;;;8.83;2.60;;;;;;;;;;4985505;28;20210;-82
2021/12/20 14:25:30;;;;;;;4.63;2.00;;;;;;;;;;4988200;28;20233;-82
2021/12/20 14:28:02;;;;;;;61.97;11.77;;;;;;;;;;4982822;28;20945;-81
2021/12/20 14:30:30;;;;;;;58.67;14.53;;;;;;;;;;4989658;28;20227;-82
2021/12/20 14:32:57;;;;;;;40.20;12.67;;;;;;;;;;4983649;28;20647;-81
2021/12/20 14:35:29;;;;;;;36.47;10.27;;;;;;;;;;4983572;28;20282;-82
2021/12/20 14:37:56;;;;;;;54.57;16.50;;;;;;;;;;4985088;28;20212;-81
2021/12/20 14:40:40;;;;;;;26.60;9.17;;;;;;;;;;4985613;28;20262;-81
2021/12/20 14:43:12;;;;;;;43.00;12.03;;;;;;;;;;4983366;28;20637;-80
2021/12/20 14:45:39;;;;;;;34.90;11.43;;;;;;;;;;4985085;28;20225;-82
2021/12/20 14:48:21;;;;;;;45.03;12.73;;;;;;;;;;4982552;28;20205;-81
2021/12/20 14:50:50;;;;;;;35.70;9.20;;;;;;;;;;5003609;23;20228;-81
2021/12/20 14:53:18;;;;;;;35.20;10.57;;;;;;;;;;5009076;28;20300;-81
2021/12/20 14:55:45;;;;;;;25.73;9.57;;;;;;;;;;5009056;28;20268;-83
2021/12/20 14:58:14;;;;;;;43.30;13.70;;;;;;;;;;5010123;28;20227;-81
2021/12/20 15:00:43;;;;;;;25.13;10.00;;;;;;;;;;5004838;28;20257;-80